Latest Weather Observations for Cessnock Airport

IDN60801

Issued at 1:35 pm EST Friday 25 April 2014 (issued every 30 minutes, with the page automatically refreshed every 10 minutes)

About weather observations | Map of weather stations | Latest weather observations for NSW | Other Formats
Station Details ID: 061260 Name: CESSNOCK AIRPORT AWS Lat: -32.79 Lon: 151.34 Height: 61.0 m
Data from the previous 72 hours. | See also: Recent months at Cessnock Airport
Date/Time
EST
Temp
°C
App
Temp
°C
Dew
Point
Rel
Hum
%
Delta-T
°C
Wind Press
QNH
hPa
Press
MSL
hPa
Rain
since 9 am
mm
Dir
 
Spd
km/h
Gust
km/h
Spd
kts
Gust
kts
25/01:30pm 18.5 17.0 12.0 66 3.6 E 11 17 6 9 1020.5 - 2.6
25/01:00pm 19.1 18.2 11.4 61 4.2 NNE 7 11 4 6 1020.9 - 2.4
25/12:30pm 18.3 18.0 13.2 72 2.9 E 7 9 4 5 1021.2 - 2.4
25/12:00pm 17.9 17.1 12.8 72 2.8 NNE 9 15 5 8 1021.4 1021.3 2.4
25/11:30am 17.9 17.8 14.0 78 2.2 NE 7 11 4 6 1021.6 - 2.4
25/11:00am 16.7 17.2 14.9 89 1.0 SW 6 11 3 6 1021.5 - 2.4
25/10:30am 15.6 14.4 14.0 90 0.9 SSW 13 17 7 9 1021.2 - 2.4
25/10:00am 15.7 15.7 13.5 87 1.2 SSE 6 13 3 7 1021.3 - 2.4
25/09:30am 15.3 11.5 13.5 89 1.0 E 26 32 14 17 1020.6 - 1.8
25/09:00am 14.9 12.4 14.1 95 0.5 N 20 26 11 14 1022.0 1021.9 10.2
25/08:30am 15.1 14.0 14.3 95 0.5 NE 13 17 7 9 1023.0 - 9.2
25/08:00am 15.4 12.2 14.3 93 0.6 WNW 24 39 13 21 1022.8 - 5.2
25/07:30am 17.4 17.9 16.6 95 0.5 WSW 9 13 5 7 1020.9 - 3.2
25/07:00am 17.6 17.7 16.6 94 0.6 WSW 11 15 6 8 1019.9 - 3.0
25/06:30am 17.6 17.4 15.8 89 1.1 SSE 11 19 6 10 1019.2 - 3.0
25/06:00am 18.6 17.1 16.4 87 1.3 S 19 28 10 15 1018.7 1018.6 2.8
25/05:30am 18.0 18.8 17.2 95 0.5 SW 9 13 5 7 1018.7 - 2.8
25/05:00am 18.6 19.7 17.1 91 0.9 ESE 7 11 4 6 1018.6 - 2.8
25/04:30am 19.8 19.9 15.4 76 2.6 SE 9 13 5 7 1018.4 - 0.0
25/04:00am 20.1 20.7 15.7 76 2.6 SE 7 13 4 7 1018.1 - 0.0
25/03:30am 19.8 19.6 15.7 77 2.4 SSE 11 13 6 7 1017.7 - 0.0
25/03:00am 20.0 18.6 15.6 76 2.6 SE 17 24 9 13 1017.7 1017.6 0.0
25/02:30am 20.1 18.4 15.7 76 2.6 SSE 19 24 10 13 1017.5 - 0.0
25/02:00am 20.4 19.6 16.0 76 2.6 SSE 15 24 8 13 1017.5 - 0.0
25/01:30am 19.9 18.7 15.1 74 2.8 S 15 20 8 11 1017.4 - 0.0
25/01:00am 19.0 18.2 13.0 68 3.4 SSW 9 13 5 7 1017.3 - 0.0
25/12:30am 19.3 17.8 11.8 62 4.2 SSW 11 13 6 7 1017.2 - 0.0
25/12:00am 19.1 17.6 13.1 68 3.4 S 13 17 7 9 1016.9 1016.8 0.0
 
Date/Time
EST
Temp
°C
App
Temp
°C
Dew
Point
Rel
Hum
%
Delta-T
°C
Wind Press
QNH
hPa
Press
MSL
hPa
Rain
since 9 am
mm
Dir
 
Spd
km/h
Gust
km/h
Spd
kts
Gust
kts
24/11:57pm 18.7 17.8 13.8 73 2.8 S 11 17 6 9 1016.9 - 0.0
24/11:30pm 13.7 12.4 9.9 78 2.0 S 7 11 4 6 1016.4 - 0.0
24/11:00pm 14.5 12.7 10.7 78 2.0 SSW 11 13 6 7 1016.2 - 0.0
24/10:30pm 13.0 12.7 10.0 82 1.5 SE 2 7 1 4 1016.1 - 0.0
24/10:00pm 13.4 13.0 11.1 86 1.2 W 4 9 2 5 1016.0 - 0.0
24/09:30pm 13.0 12.1 10.5 85 1.3 SSW 6 9 3 5 1015.6 - 0.0
24/09:00pm 13.4 13.5 10.2 81 1.7 CALM 0 0 0 0 1015.3 1015.2 0.0
24/08:30pm 14.5 14.6 10.3 76 2.2 CALM 0 0 0 0 1015.1 - 0.0
24/08:00pm 14.3 14.4 10.1 76 2.2 CALM 0 2 0 1 1014.7 - 0.0
24/07:30pm 15.1 14.6 10.7 75 2.3 S 4 6 2 3 1014.3 - 0.0
24/07:00pm 16.2 15.1 10.7 70 2.9 W 7 9 4 5 1013.8 - 0.0
24/06:30pm 17.5 17.7 10.4 63 3.8 CALM 0 7 0 4 1013.5 - 0.0
24/06:00pm 19.0 18.0 11.1 60 4.3 W 7 7 4 4 1012.9 1012.7 0.0
24/05:30pm 21.8 21.2 11.8 53 5.6 N 6 7 3 4 1012.6 - 0.0
24/05:00pm 26.0 25.1 10.6 38 8.6 N 6 7 3 4 1012.3 - 0.0
24/04:30pm 26.4 25.1 10.1 36 9.1 N 7 11 4 6 1011.9 - 0.0
24/04:00pm 27.6 25.0 9.4 32 10.1 N 13 19 7 10 1011.9 - 0.0
24/03:30pm 28.3 25.4 8.1 28 11.0 NNW 13 19 7 10 1011.9 - 0.0
24/03:00pm 28.4 25.4 7.6 27 11.2 NW 13 22 7 12 1012.0 1011.8 0.0
24/02:30pm 28.6 25.6 9.3 30 10.7 NW 15 24 8 13 1011.9 - 0.0
24/02:00pm 28.3 25.4 9.6 31 10.4 NNW 15 20 8 11 1012.0 - 0.0
24/01:30pm 28.2 24.6 9.9 32 10.3 NW 19 28 10 15 1012.2 - 0.0
24/01:00pm 28.2 24.3 10.9 34 9.9 NW 22 37 12 20 1012.1 - 0.0
24/12:30pm 27.6 22.8 10.3 34 9.7 NNW 26 37 14 20 1012.2 - 0.0
24/12:00pm 26.7 21.4 10.0 35 9.3 NNW 28 43 15 23 1012.5 1012.3 0.0
24/11:35am 26.3 20.9 9.6 35 9.2 NNW 28 46 15 25 1012.8 - 0.0
24/11:30am 26.3 21.8 10.0 36 9.1 NNW 24 41 13 22 1012.9 - 0.0
24/11:00am 25.5 20.8 9.3 36 8.9 NNW 24 46 13 25 1013.4 - 0.0
24/10:30am 24.2 20.4 9.8 40 7.9 NW 20 39 11 21 1013.8 - 0.0
24/10:00am 23.2 19.2 9.2 41 7.6 NNW 20 39 11 21 1013.9 - 0.0
24/09:30am 22.3 19.4 9.5 44 6.9 NNW 15 26 8 14 1014.1 - 0.0
24/09:00am 21.3 19.3 10.2 49 6.0 NNW 11 20 6 11 1014.4 1014.3 0.0
24/08:30am 18.5 17.4 10.6 60 4.3 N 7 11 4 6 1014.4 - 0.0
24/08:00am 14.5 14.6 13.9 96 0.3 E 6 9 3 5 1014.4 - 0.0
24/07:30am 11.1 11.4 10.9 99 0.1 CALM 0 0 0 0 1014.3 - 0.0
24/07:00am 8.6 7.5 8.3 98 0.1 WSW 4 6 2 3 1014.1 - 0.0
24/06:30am 7.3 6.6 7.0 98 0.1 CALM 0 0 0 0 1014.0 - 0.0
24/06:00am 7.6 7.0 7.3 98 0.1 CALM 0 7 0 4 1013.9 1013.7 0.0
24/05:30am 7.9 6.6 7.6 98 0.1 WSW 4 6 2 3 1013.8 - 0.0
24/05:00am 8.4 7.2 8.1 98 0.1 WSW 4 7 2 4 1013.7 - 0.0
24/04:30am 8.1 6.8 7.8 98 0.1 SW 4 7 2 4 1013.6 - 0.0
24/04:00am 8.4 7.9 8.0 97 0.2 CALM 0 0 0 0 1013.6 - 0.0
24/03:30am 8.8 8.5 8.5 98 0.1 CALM 0 6 0 3 1013.5 - 0.0
24/03:00am 8.5 8.1 8.1 97 0.2 CALM 0 0 0 0 1013.7 1013.5 0.0
24/02:30am 9.1 8.8 8.6 97 0.2 CALM 0 0 0 0 1013.9 - 0.0
24/02:00am 9.1 8.8 8.6 97 0.2 CALM 0 0 0 0 1014.0 - 0.0
24/01:30am 9.7 9.5 9.2 97 0.2 CALM 0 0 0 0 1014.3 - 0.0
24/01:00am 10.3 10.3 9.8 97 0.3 CALM 0 0 0 0 1014.6 - 0.0
24/12:30am 10.2 10.1 9.6 96 0.3 CALM 0 0 0 0 1014.6 - 0.0
24/12:00am 10.3 10.2 9.5 95 0.4 CALM 0 0 0 0 1014.8 1014.7 0.0
 
Date/Time
EST
Temp
°C
App
Temp
°C
Dew
Point
Rel
Hum
%
Delta-T
°C
Wind Press
QNH
hPa
Press
MSL
hPa
Rain
since 9 am
mm
Dir
 
Spd
km/h
Gust
km/h
Spd
kts
Gust
kts
23/11:30pm 10.8 10.9 10.0 95 0.4 CALM 0 0 0 0 1015.0 - 0.0
23/11:00pm 10.9 11.0 10.0 94 0.5 CALM 0 0 0 0 1015.3 - 0.0
23/10:30pm 11.0 9.9 9.8 92 0.6 S 6 7 3 4 1015.4 - 0.0
23/10:00pm 11.0 9.5 8.6 85 1.2 SSW 6 7 3 4 1015.7 - 0.0
23/09:30pm 12.6 11.2 9.6 82 1.5 SSW 7 11 4 6 1015.9 - 0.0
23/09:00pm 12.5 10.7 9.5 82 1.5 SW 9 11 5 6 1016.0 1015.9 0.0
23/08:30pm 13.4 11.3 9.6 78 1.9 WSW 11 17 6 9 1016.3 - 0.0
23/08:00pm 14.2 12.3 10.6 79 1.9 WSW 11 15 6 8 1016.2 - 0.0
23/07:30pm 14.4 12.4 10.2 76 2.2 SW 11 13 6 7 1015.9 - 0.0
23/07:00pm 14.9 13.7 10.3 74 2.4 SW 7 9 4 5 1015.9 - 0.0
23/06:30pm 17.0 16.6 9.7 62 3.8 ESE 2 7 1 4 1015.5 - 0.0
23/06:00pm 20.2 18.9 11.1 56 5.0 ENE 9 13 5 7 1015.1 1015.0 0.0
23/05:30pm 20.7 19.4 11.1 54 5.3 E 9 13 5 7 1014.7 - 0.0
23/05:00pm 23.4 22.1 9.8 42 7.4 SSW 7 9 4 5 1014.3 - 0.0
23/04:30pm 24.8 22.5 9.1 37 8.5 S 11 11 6 6 1014.2 - 0.0
23/04:00pm 25.8 23.7 8.3 33 9.4 S 9 13 5 7 1014.1 - 0.0
23/03:30pm 26.2 24.3 9.1 34 9.4 SSW 9 15 5 8 1014.1 - 0.0
23/03:00pm 26.4 23.3 7.4 30 10.1 S 13 19 7 10 1014.0 1013.8 0.0
23/02:30pm 27.4 25.6 7.8 29 10.6 WNW 7 15 4 8 1014.0 - 0.0
23/02:00pm 26.8 24.5 7.3 29 10.4 NW 9 15 5 8 1014.2 - 0.0
23/01:30pm 26.8 24.6 9.2 33 9.7 NW 11 20 6 11 1014.3 - 0.0
23/01:00pm 26.4 23.6 8.4 32 9.7 NW 13 24 7 13 1014.6 - 0.0
23/12:30pm 25.2 22.1 8.7 35 8.9 NW 15 20 8 11 1015.0 - 0.0
23/12:00pm 25.1 21.5 6.8 31 9.6 NNW 15 22 8 12 1015.5 1015.4 0.0
23/11:30am 24.1 20.9 6.8 33 9.0 NNW 13 19 7 10 1015.9 - 0.0
23/11:00am 23.6 21.1 6.4 33 8.8 NNW 9 15 5 8 1016.5 - 0.0
23/10:30am 22.9 21.2 7.4 37 8.1 NW 6 11 3 6 1016.7 - 0.0
23/10:00am 21.3 20.3 8.9 45 6.6 E 4 7 2 4 1017.1 - 0.0
23/09:30am 19.8 18.3 8.5 48 5.9 E 6 9 3 5 1017.3 - 0.0
23/09:00am 18.2 17.3 9.3 56 4.7 N 4 7 2 4 1017.3 1017.2 0.0
23/08:30am 15.7 15.6 9.4 66 3.3 CALM 0 0 0 0 1017.6 - 0.0
23/08:00am 13.4 13.6 10.6 83 1.5 CALM 0 0 0 0 1017.7 - 0.0
23/07:30am 10.1 10.1 9.8 98 0.2 CALM 0 0 0 0 1017.5 - 0.0
23/07:00am 7.8 6.4 7.4 97 0.2 W 4 7 2 4 1017.3 - 0.0
23/06:30am 6.6 5.7 6.0 96 0.3 CALM 0 0 0 0 1016.9 - 0.0
23/06:00am 6.9 6.1 6.3 96 0.3 CALM 0 0 0 0 1016.7 1016.6 0.0
23/05:30am 7.2 6.4 6.5 95 0.3 CALM 0 0 0 0 1016.6 - 0.0
23/05:00am 7.7 6.3 7.1 96 0.3 WSW 4 7 2 4 1016.5 - 0.0
23/04:30am 7.7 5.7 7.1 96 0.3 WSW 7 9 4 5 1016.5 - 0.0
23/04:00am 7.9 6.5 7.1 95 0.4 W 4 6 2 3 1016.4 - 0.0
23/03:30am 8.5 8.0 7.7 95 0.4 CALM 0 0 0 0 1016.4 - 0.0
23/03:00am 8.9 8.4 7.8 93 0.5 CALM 0 0 0 0 1016.2 1016.1 0.0
23/02:30am 9.0 8.5 7.8 92 0.6 CALM 0 6 0 3 1016.3 - 0.0
23/02:00am 9.5 9.1 8.1 91 0.7 CALM 0 6 0 3 1016.4 - 0.0
23/01:30am 9.9 9.5 8.3 90 0.8 CALM 0 0 0 0 1016.5 - 0.0
23/01:00am 10.0 9.4 7.4 84 1.2 CALM 0 0 0 0 1016.6 - 0.0
23/12:30am 10.0 8.2 7.1 82 1.4 WSW 6 7 3 4 1016.7 - 0.0
23/12:00am 10.7 10.2 7.9 83 1.4 CALM 0 0 0 0 1016.7 1016.6 0.0
 
Date/Time
EST
Temp
°C
App
Temp
°C
Dew
Point
Rel
Hum
%
Delta-T
°C
Wind Press
QNH
hPa
Press
MSL
hPa
Rain
since 9 am
mm
Dir
 
Spd
km/h
Gust
km/h
Spd
kts
Gust
kts
22/11:30pm 10.4 8.6 7.3 81 1.5 WSW 6 7 3 4 1016.9 - 0.0
22/11:00pm 11.0 9.1 7.5 79 1.7 WSW 7 9 4 5 1017.1 - 0.0
22/10:30pm 12.2 10.6 7.9 75 2.1 SW 6 9 3 5 1017.2 - 0.0
22/10:00pm 12.7 10.7 8.8 77 2.0 WSW 9 11 5 6 1017.2 - 0.0
22/09:30pm 12.4 10.9 8.5 77 1.9 WSW 6 11 3 6 1017.1 - 0.0
22/09:00pm 13.1 11.8 9.2 77 2.0 WSW 6 7 3 4 1017.0 1016.9 0.0
22/08:30pm 14.4 14.0 9.6 73 2.5 SSE 2 6 1 3 1016.6 - 0.0
22/08:00pm 14.4 14.0 9.6 73 2.5 NNE 2 6 1 3 1016.3 - 0.0
22/07:30pm 14.5 13.4 10.1 75 2.3 WSW 6 13 3 7 1016.0 - 0.0
22/07:00pm 15.1 14.1 10.3 73 2.5 WNW 6 7 3 4 1015.9 - 0.0
22/06:30pm 16.6 15.2 9.5 63 3.7 WSW 7 9 4 5 1015.8 - 0.0
22/06:00pm 17.2 17.0 9.1 59 4.2 CALM 0 0 0 0 1015.6 1015.5 0.0
22/05:30pm 20.5 19.2 7.8 44 6.6 N 4 6 2 3 1015.5 - 0.0
22/05:00pm 22.5 20.6 7.5 38 7.8 N 7 9 4 5 1015.3 - 0.0
22/04:30pm 23.5 20.9 6.3 33 8.8 N 9 15 5 8 1015.2 - 0.0
22/04:00pm 24.5 21.0 5.3 29 9.7 NNW 13 20 7 11 1015.1 - 0.0
22/03:30pm 25.1 20.9 5.8 29 9.9 NW 17 26 9 14 1015.2 - 0.0
22/03:00pm 25.3 20.5 5.5 28 10.1 NW 20 39 11 21 1015.3 1015.2 0.0
22/02:30pm 25.4 20.2 5.6 28 10.1 NW 22 33 12 18 1015.2 - 0.0
22/02:00pm 24.6 19.4 5.4 29 9.8 NW 22 37 12 20 1015.2 - 0.0

Other Formats:

Comma delimited format used in spreadsheet applications
http://www.bom.gov.au/fwo/IDN60801/IDN60801.95771.axf

JavaScript Object Notation format (JSON) in row-major order
http://www.bom.gov.au/fwo/IDN60801/IDN60801.95771.json